Zulu, Indiana
Current Conditions -  °F | °C
As of 5:54 PM on Monday 24 Nov 2014 (Local Time) from KFWA Reporting Station
Overcast Overcast  
Wind Chill: 22°   Ceiling: 3400
Heat Index: 35°   Visibility: 10mi
Dew Point: 27°   Wind: 29mph
Humidity: 72%   Direction: 230°SW
Pressure: 29.65"   Gusts: 51mph
Location:  40.9863°N, 84.8797°W
Report Text: KFWA 242254Z 23025G44KT 10SM SCT026 BKN034 OVC046 02/M03 A2965 RMK AO2 PK WND 24044/2236 RAE17SNE17 SLP044 P0000 T00171028
Loading
Personal Weather Stations






























Interactive Weather Map New forecast layout! Learn more

10-Day Weather Forecast

Advertisements
Track Severe Weather on mobile